sensor_id;sensor_type;location;lat;lon;timestamp;temperature;humidity
16040;DHT22;8124;48.634;8.120;2024-01-15T00:01:42;1.60;99.90
16040;DHT22;8124;48.634;8.120;2024-01-15T00:06:47;1.70;99.90
16040;DHT22;8124;48.634;8.120;2024-01-15T00:11:50;1.80;99.90
16040;DHT22;8124;48.634;8.120;2024-01-15T00:16:53;1.80;99.90
16040;DHT22;8124;48.634;8.120;2024-01-15T00:21:58;1.80;99.90
16040;DHT22;8124;48.634;8.120;2024-01-15T00:27:01;1.70;99.90
16040;DHT22;8124;48.634;8.120;2024-01-15T00:32:05;1.80;99.90
16040;DHT22;8124;48.634;8.120;2024-01-15T00:37:09;1.80;99.90
16040;DHT22;8124;48.634;8.120;2024-01-15T00:42:12;1.80;99.90
16040;DHT22;8124;48.634;8.120;2024-01-15T00:47:17;1.80;99.90
16040;DHT22;8124;48.634;8.120;2024-01-15T00:52:22;1.90;99.90
16040;DHT22;8124;48.634;8.120;2024-01-15T00:57:25;1.90;99.90
16040;DHT22;8124;48.634;8.120;2024-01-15T01:02:28;1.90;99.90
16040;DHT22;8124;48.634;8.120;2024-01-15T01:07:32;1.90;99.90
16040;DHT22;8124;48.634;8.120;2024-01-15T01:12:35;1.90;99.90
16040;DHT22;8124;48.634;8.120;2024-01-15T01:17:38;1.90;99.90
16040;DHT22;8124;48.634;8.120;2024-01-15T01:22:43;1.90;99.90
16040;DHT22;8124;48.634;8.120;2024-01-15T01:27:46;1.90;99.90
16040;DHT22;8124;48.634;8.120;2024-01-15T01:32:49;1.70;99.90
16040;DHT22;8124;48.634;8.120;2024-01-15T01:37:53;1.70;99.90
16040;DHT22;8124;48.634;8.120;2024-01-15T01:42:56;1.80;99.90
16040;DHT22;8124;48.634;8.120;2024-01-15T01:48:00;1.80;99.90
16040;DHT22;8124;48.634;8.120;2024-01-15T01:53:05;1.80;99.90
16040;DHT22;8124;48.634;8.120;2024-01-15T01:58:08;1.80;99.90
16040;DHT22;8124;48.634;8.120;2024-01-15T02:03:12;1.90;99.90
16040;DHT22;8124;48.634;8.120;2024-01-15T02:08:16;1.90;99.90
16040;DHT22;8124;48.634;8.120;2024-01-15T02:13:20;1.90;99.90
16040;DHT22;8124;48.634;8.120;2024-01-15T02:18:23;1.70;99.90
16040;DHT22;8124;48.634;8.120;2024-01-15T02:23:28;1.80;99.90
16040;DHT22;8124;48.634;8.120;2024-01-15T02:28:32;1.80;99.90
16040;DHT22;8124;48.634;8.120;2024-01-15T02:33:35;1.80;99.90
16040;DHT22;8124;48.634;8.120;2024-01-15T02:38:41;1.90;99.90
16040;DHT22;8124;48.634;8.120;2024-01-15T02:43:44;1.90;99.90
16040;DHT22;8124;48.634;8.120;2024-01-15T02:48:48;1.80;99.90
16040;DHT22;8124;48.634;8.120;2024-01-15T02:53:52;1.90;99.90
16040;DHT22;8124;48.634;8.120;2024-01-15T02:58:55;1.90;99.90
16040;DHT22;8124;48.634;8.120;2024-01-15T03:03:58;1.90;99.90
16040;DHT22;8124;48.634;8.120;2024-01-15T03:09:03;1.90;99.90
16040;DHT22;8124;48.634;8.120;2024-01-15T03:14:07;2.00;99.90
16040;DHT22;8124;48.634;8.120;2024-01-15T03:19:10;1.90;99.90
16040;DHT22;8124;48.634;8.120;2024-01-15T03:24:14;2.00;99.90
16040;DHT22;8124;48.634;8.120;2024-01-15T03:29:17;2.10;99.90
16040;DHT22;8124;48.634;8.120;2024-01-15T03:34:20;2.20;99.90
16040;DHT22;8124;48.634;8.120;2024-01-15T03:39:25;2.30;99.90
16040;DHT22;8124;48.634;8.120;2024-01-15T03:44:28;2.20;99.90
16040;DHT22;8124;48.634;8.120;2024-01-15T03:49:31;2.10;99.90
16040;DHT22;8124;48.634;8.120;2024-01-15T03:54:36;2.20;99.90
16040;DHT22;8124;48.634;8.120;2024-01-15T03:59:40;2.20;99.90
16040;DHT22;8124;48.634;8.120;2024-01-15T04:04:43;2.20;99.90
16040;DHT22;8124;48.634;8.120;2024-01-15T04:09:48;2.20;99.90
16040;DHT22;8124;48.634;8.120;2024-01-15T04:14:51;2.20;99.90
16040;DHT22;8124;48.634;8.120;2024-01-15T04:19:54;2.10;99.90
16040;DHT22;8124;48.634;8.120;2024-01-15T04:24:58;2.20;99.90
16040;DHT22;8124;48.634;8.120;2024-01-15T04:30:02;2.30;99.90
16040;DHT22;8124;48.634;8.120;2024-01-15T04:35:05;2.30;99.90
16040;DHT22;8124;48.634;8.120;2024-01-15T04:40:11;2.30;99.90
16040;DHT22;8124;48.634;8.120;2024-01-15T04:45:14;2.30;99.90
16040;DHT22;8124;48.634;8.120;2024-01-15T04:50:17;2.40;99.90
16040;DHT22;8124;48.634;8.120;2024-01-15T04:55:22;2.40;99.90
16040;DHT22;8124;48.634;8.120;2024-01-15T05:00:25;2.50;99.90
16040;DHT22;8124;48.634;8.120;2024-01-15T05:05:28;2.50;99.90
16040;DHT22;8124;48.634;8.120;2024-01-15T05:10:32;2.50;99.90
16040;DHT22;8124;48.634;8.120;2024-01-15T05:15:35;2.50;99.90
16040;DHT22;8124;48.634;8.120;2024-01-15T05:20:39;2.60;99.90
16040;DHT22;8124;48.634;8.120;2024-01-15T05:25:43;2.70;99.90
16040;DHT22;8124;48.634;8.120;2024-01-15T05:30:46;2.60;99.90
16040;DHT22;8124;48.634;8.120;2024-01-15T05:35:49;2.60;99.90
16040;DHT22;8124;48.634;8.120;2024-01-15T05:40:54;2.70;99.90
16040;DHT22;8124;48.634;8.120;2024-01-15T05:45:57;2.70;99.90
16040;DHT22;8124;48.634;8.120;2024-01-15T05:51:00;2.60;99.90
16040;DHT22;8124;48.634;8.120;2024-01-15T05:56:05;2.70;99.90
16040;DHT22;8124;48.634;8.120;2024-01-15T06:01:09;2.70;99.90
16040;DHT22;8124;48.634;8.120;2024-01-15T06:06:12;2.60;99.90
16040;DHT22;8124;48.634;8.120;2024-01-15T06:11:17;2.80;99.90
16040;DHT22;8124;48.634;8.120;2024-01-15T06:16:20;2.70;99.90
16040;DHT22;8124;48.634;8.120;2024-01-15T06:21:24;2.70;99.90
16040;DHT22;8124;48.634;8.120;2024-01-15T06:26:28;2.70;99.90
16040;DHT22;8124;48.634;8.120;2024-01-15T06:31:31;2.70;99.90
16040;DHT22;8124;48.634;8.120;2024-01-15T06:36:35;2.90;99.90
16040;DHT22;8124;48.634;8.120;2024-01-15T06:41:39;2.80;99.90
16040;DHT22;8124;48.634;8.120;2024-01-15T06:46:45;2.90;99.90
16040;DHT22;8124;48.634;8.120;2024-01-15T06:51:48;2.90;99.90
16040;DHT22;8124;48.634;8.120;2024-01-15T06:56:53;2.90;99.90
16040;DHT22;8124;48.634;8.120;2024-01-15T07:01:56;3.10;99.90
16040;DHT22;8124;48.634;8.120;2024-01-15T07:06:59;3.00;99.90
16040;DHT22;8124;48.634;8.120;2024-01-15T07:12:03;3.00;99.90
16040;DHT22;8124;48.634;8.120;2024-01-15T07:17:07;3.10;99.90
16040;DHT22;8124;48.634;8.120;2024-01-15T07:22:10;3.10;99.90
16040;DHT22;8124;48.634;8.120;2024-01-15T07:27:14;3.10;99.90
16040;DHT22;8124;48.634;8.120;2024-01-15T07:32:18;3.10;99.90
16040;DHT22;8124;48.634;8.120;2024-01-15T07:37:22;3.10;99.90
16040;DHT22;8124;48.634;8.120;2024-01-15T07:42:27;3.20;99.90
16040;DHT22;8124;48.634;8.120;2024-01-15T07:47:30;3.10;99.90
16040;DHT22;8124;48.634;8.120;2024-01-15T07:52:33;3.10;99.90
16040;DHT22;8124;48.634;8.120;2024-01-15T07:57:38;3.00;99.90
16040;DHT22;8124;48.634;8.120;2024-01-15T08:02:41;2.90;99.90
16040;DHT22;8124;48.634;8.120;2024-01-15T08:07:44;2.80;99.90
16040;DHT22;8124;48.634;8.120;2024-01-15T08:12:48;2.80;99.90
16040;DHT22;8124;48.634;8.120;2024-01-15T08:17:51;2.70;99.90
16040;DHT22;8124;48.634;8.120;2024-01-15T08:22:54;2.60;99.90
16040;DHT22;8124;48.634;8.120;2024-01-15T08:27:59;2.70;99.90
16040;DHT22;8124;48.634;8.120;2024-01-15T08:33:02;2.70;99.90
16040;DHT22;8124;48.634;8.120;2024-01-15T08:38:15;2.80;99.90
16040;DHT22;8124;48.634;8.120;2024-01-15T08:43:19;2.80;99.90
16040;DHT22;8124;48.634;8.120;2024-01-15T08:48:22;2.90;99.90
16040;DHT22;8124;48.634;8.120;2024-01-15T08:53:27;3.00;99.90
16040;DHT22;8124;48.634;8.120;2024-01-15T08:58:32;2.80;99.90
16040;DHT22;8124;48.634;8.120;2024-01-15T09:03:35;3.00;99.90
16040;DHT22;8124;48.634;8.120;2024-01-15T09:08:38;3.10;99.90
16040;DHT22;8124;48.634;8.120;2024-01-15T09:13:43;3.00;99.90
16040;DHT22;8124;48.634;8.120;2024-01-15T09:18:46;2.80;99.90
16040;DHT22;8124;48.634;8.120;2024-01-15T09:23:50;2.90;99.90
16040;DHT22;8124;48.634;8.120;2024-01-15T09:28:54;3.00;99.90
16040;DHT22;8124;48.634;8.120;2024-01-15T09:33:57;3.00;99.90
16040;DHT22;8124;48.634;8.120;2024-01-15T09:39:02;3.00;99.90
16040;DHT22;8124;48.634;8.120;2024-01-15T09:44:06;3.00;99.90
16040;DHT22;8124;48.634;8.120;2024-01-15T09:49:11;3.10;99.90
16040;DHT22;8124;48.634;8.120;2024-01-15T09:54:15;3.10;99.90
16040;DHT22;8124;48.634;8.120;2024-01-15T09:59:20;3.10;99.90
16040;DHT22;8124;48.634;8.120;2024-01-15T10:04:25;3.20;99.90
16040;DHT22;8124;48.634;8.120;2024-01-15T10:09:28;3.20;99.90
16040;DHT22;8124;48.634;8.120;2024-01-15T10:14:33;3.20;99.90
16040;DHT22;8124;48.634;8.120;2024-01-15T10:19:36;3.30;99.90
16040;DHT22;8124;48.634;8.120;2024-01-15T10:24:40;3.40;99.90
16040;DHT22;8124;48.634;8.120;2024-01-15T10:29:45;3.20;99.90
16040;DHT22;8124;48.634;8.120;2024-01-15T10:34:48;3.30;99.90
16040;DHT22;8124;48.634;8.120;2024-01-15T10:39:55;3.40;99.90
16040;DHT22;8124;48.634;8.120;2024-01-15T10:44:59;3.50;99.90
16040;DHT22;8124;48.634;8.120;2024-01-15T10:50:03;3.30;99.90
16040;DHT22;8124;48.634;8.120;2024-01-15T10:55:09;3.50;99.90
16040;DHT22;8124;48.634;8.120;2024-01-15T11:00:21;3.50;99.90
16040;DHT22;8124;48.634;8.120;2024-01-15T11:05:27;3.50;99.90
16040;DHT22;8124;48.634;8.120;2024-01-15T11:10:41;3.60;99.90
16040;DHT22;8124;48.634;8.120;2024-01-15T11:15:56;3.50;99.90
16040;DHT22;8124;48.634;8.120;2024-01-15T11:21:22;3.40;99.90
16040;DHT22;8124;48.634;8.120;2024-01-15T11:26:31;3.30;99.90
16040;DHT22;8124;48.634;8.120;2024-01-15T11:31:58;3.30;99.90
16040;DHT22;8124;48.634;8.120;2024-01-15T11:37:03;3.30;99.90
16040;DHT22;8124;48.634;8.120;2024-01-15T11:42:06;3.30;99.90
16040;DHT22;8124;48.634;8.120;2024-01-15T11:47:11;3.40;99.90
16040;DHT22;8124;48.634;8.120;2024-01-15T11:52:18;3.40;99.90
16040;DHT22;8124;48.634;8.120;2024-01-15T11:57:25;3.40;99.90
16040;DHT22;8124;48.634;8.120;2024-01-15T12:02:34;3.40;99.90
16040;DHT22;8124;48.634;8.120;2024-01-15T12:07:37;3.50;99.90
16040;DHT22;8124;48.634;8.120;2024-01-15T12:12:57;3.30;99.90
16040;DHT22;8124;48.634;8.120;2024-01-15T12:18:02;3.40;99.90
16040;DHT22;8124;48.634;8.120;2024-01-15T12:23:06;3.40;99.90
16040;DHT22;8124;48.634;8.120;2024-01-15T12:28:11;3.40;99.90
16040;DHT22;8124;48.634;8.120;2024-01-15T12:33:17;4.40;99.90
16040;DHT22;8124;48.634;8.120;2024-01-15T12:38:21;3.90;99.90
16040;DHT22;8124;48.634;8.120;2024-01-15T12:43:24;3.60;99.90
16040;DHT22;8124;48.634;8.120;2024-01-15T12:48:29;3.60;99.90
16040;DHT22;8124;48.634;8.120;2024-01-15T12:53:32;3.50;99.90
16040;DHT22;8124;48.634;8.120;2024-01-15T12:58:37;3.50;99.90
16040;DHT22;8124;48.634;8.120;2024-01-15T13:03:41;3.60;99.90
16040;DHT22;8124;48.634;8.120;2024-01-15T13:08:45;3.40;99.90
16040;DHT22;8124;48.634;8.120;2024-01-15T13:13:48;3.40;99.90
16040;DHT22;8124;48.634;8.120;2024-01-15T13:18:52;3.40;99.90
16040;DHT22;8124;48.634;8.120;2024-01-15T13:23:55;3.40;99.90
16040;DHT22;8124;48.634;8.120;2024-01-15T13:28:59;3.30;99.90
16040;DHT22;8124;48.634;8.120;2024-01-15T13:34:05;3.40;99.90
16040;DHT22;8124;48.634;8.120;2024-01-15T13:39:09;3.40;99.90
16040;DHT22;8124;48.634;8.120;2024-01-15T13:44:12;3.10;99.90
16040;DHT22;8124;48.634;8.120;2024-01-15T13:49:17;3.10;99.90
16040;DHT22;8124;48.634;8.120;2024-01-15T13:54:22;3.00;99.90
16040;DHT22;8124;48.634;8.120;2024-01-15T13:59:38;3.00;99.90
16040;DHT22;8124;48.634;8.120;2024-01-15T14:04:43;4.40;99.90
16040;DHT22;8124;48.634;8.120;2024-01-15T14:09:46;4.10;99.90
16040;DHT22;8124;48.634;8.120;2024-01-15T14:14:49;4.00;99.90
16040;DHT22;8124;48.634;8.120;2024-01-15T14:19:53;4.10;99.90
16040;DHT22;8124;48.634;8.120;2024-01-15T14:24:58;4.10;99.90
16040;DHT22;8124;48.634;8.120;2024-01-15T14:30:01;4.20;99.90
16040;DHT22;8124;48.634;8.120;2024-01-15T14:35:07;4.30;99.90
16040;DHT22;8124;48.634;8.120;2024-01-15T14:40:12;4.40;99.90
16040;DHT22;8124;48.634;8.120;2024-01-15T14:45:19;4.20;99.90
16040;DHT22;8124;48.634;8.120;2024-01-15T14:50:23;4.00;99.90
16040;DHT22;8124;48.634;8.120;2024-01-15T14:55:26;4.10;99.90
16040;DHT22;8124;48.634;8.120;2024-01-15T15:00:29;4.00;99.90
16040;DHT22;8124;48.634;8.120;2024-01-15T15:05:34;4.10;99.90
16040;DHT22;8124;48.634;8.120;2024-01-15T15:10:38;4.30;99.90
16040;DHT22;8124;48.634;8.120;2024-01-15T15:15:42;4.10;99.90
16040;DHT22;8124;48.634;8.120;2024-01-15T15:20:47;4.20;99.90
16040;DHT22;8124;48.634;8.120;2024-01-15T15:25:51;4.10;99.90
16040;DHT22;8124;48.634;8.120;2024-01-15T15:31:09;4.10;99.90
16040;DHT22;8124;48.634;8.120;2024-01-15T15:36:25;4.20;99.90
16040;DHT22;8124;48.634;8.120;2024-01-15T15:41:38;4.10;99.90
16040;DHT22;8124;48.634;8.120;2024-01-15T15:46:45;4.10;99.90
16040;DHT22;8124;48.634;8.120;2024-01-15T15:51:53;4.00;99.90
16040;DHT22;8124;48.634;8.120;2024-01-15T15:57:00;4.00;99.90
16040;DHT22;8124;48.634;8.120;2024-01-15T16:02:07;4.00;99.90
16040;DHT22;8124;48.634;8.120;2024-01-15T16:07:14;4.00;99.90
16040;DHT22;8124;48.634;8.120;2024-01-15T16:12:17;3.90;99.90
16040;DHT22;8124;48.634;8.120;2024-01-15T16:17:26;4.10;99.90
16040;DHT22;8124;48.634;8.120;2024-01-15T16:22:51;4.00;99.90
16040;DHT22;8124;48.634;8.120;2024-01-15T16:28:22;3.90;99.90
16040;DHT22;8124;48.634;8.120;2024-01-15T16:33:25;3.90;99.90
16040;DHT22;8124;48.634;8.120;2024-01-15T16:38:30;3.80;99.90
16040;DHT22;8124;48.634;8.120;2024-01-15T16:43:34;3.90;99.90
16040;DHT22;8124;48.634;8.120;2024-01-15T16:48:38;3.80;99.90
16040;DHT22;8124;48.634;8.120;2024-01-15T16:53:44;3.80;99.90
16040;DHT22;8124;48.634;8.120;2024-01-15T16:58:48;3.70;99.90
16040;DHT22;8124;48.634;8.120;2024-01-15T17:03:51;3.70;99.90
16040;DHT22;8124;48.634;8.120;2024-01-15T17:08:56;3.60;99.90
16040;DHT22;8124;48.634;8.120;2024-01-15T17:13:59;3.70;99.90
16040;DHT22;8124;48.634;8.120;2024-01-15T17:19:05;3.80;99.90
16040;DHT22;8124;48.634;8.120;2024-01-15T17:24:10;3.70;99.90
16040;DHT22;8124;48.634;8.120;2024-01-15T17:29:14;3.50;99.90
16040;DHT22;8124;48.634;8.120;2024-01-15T17:34:18;3.60;99.90
16040;DHT22;8124;48.634;8.120;2024-01-15T17:39:22;3.60;99.90
16040;DHT22;8124;48.634;8.120;2024-01-15T17:44:25;3.50;99.90
16040;DHT22;8124;48.634;8.120;2024-01-15T17:49:29;3.50;99.90
16040;DHT22;8124;48.634;8.120;2024-01-15T17:54:34;3.40;99.90
16040;DHT22;8124;48.634;8.120;2024-01-15T17:59:39;3.40;99.90
16040;DHT22;8124;48.634;8.120;2024-01-15T18:04:42;3.40;99.90
16040;DHT22;8124;48.634;8.120;2024-01-15T18:09:47;3.50;99.90
16040;DHT22;8124;48.634;8.120;2024-01-15T18:14:50;3.50;99.90
16040;DHT22;8124;48.634;8.120;2024-01-15T18:19:54;3.50;99.90
16040;DHT22;8124;48.634;8.120;2024-01-15T18:25:03;3.50;99.90
16040;DHT22;8124;48.634;8.120;2024-01-15T18:30:16;3.50;99.90
16040;DHT22;8124;48.634;8.120;2024-01-15T18:35:19;3.70;99.90
16040;DHT22;8124;48.634;8.120;2024-01-15T18:40:24;3.60;99.90
16040;DHT22;8124;48.634;8.120;2024-01-15T18:45:28;3.50;99.90
16040;DHT22;8124;48.634;8.120;2024-01-15T18:50:33;3.50;99.90
16040;DHT22;8124;48.634;8.120;2024-01-15T18:55:42;3.60;99.90
16040;DHT22;8124;48.634;8.120;2024-01-15T19:00:45;3.60;99.90
16040;DHT22;8124;48.634;8.120;2024-01-15T19:05:48;3.60;99.90
16040;DHT22;8124;48.634;8.120;2024-01-15T19:10:53;3.60;99.90
16040;DHT22;8124;48.634;8.120;2024-01-15T19:15:57;3.40;99.90
16040;DHT22;8124;48.634;8.120;2024-01-15T19:21:01;3.60;99.90
16040;DHT22;8124;48.634;8.120;2024-01-15T19:26:06;3.50;99.90
16040;DHT22;8124;48.634;8.120;2024-01-15T19:31:10;3.50;99.90
16040;DHT22;8124;48.634;8.120;2024-01-15T19:36:20;3.50;99.90
16040;DHT22;8124;48.634;8.120;2024-01-15T19:41:25;3.60;99.90
16040;DHT22;8124;48.634;8.120;2024-01-15T19:46:28;3.60;99.90
16040;DHT22;8124;48.634;8.120;2024-01-15T19:51:32;3.50;99.90
16040;DHT22;8124;48.634;8.120;2024-01-15T19:56:37;3.50;99.90
16040;DHT22;8124;48.634;8.120;2024-01-15T20:01:40;3.50;99.90
16040;DHT22;8124;48.634;8.120;2024-01-15T20:06:43;3.40;99.90
16040;DHT22;8124;48.634;8.120;2024-01-15T20:11:48;3.50;99.90
16040;DHT22;8124;48.634;8.120;2024-01-15T20:16:51;3.60;99.90
16040;DHT22;8124;48.634;8.120;2024-01-15T20:21:54;3.50;99.90
16040;DHT22;8124;48.634;8.120;2024-01-15T20:26:58;3.40;99.90
16040;DHT22;8124;48.634;8.120;2024-01-15T20:32:03;3.50;99.90
16040;DHT22;8124;48.634;8.120;2024-01-15T20:37:06;3.50;99.90
16040;DHT22;8124;48.634;8.120;2024-01-15T20:42:11;3.50;99.90
16040;DHT22;8124;48.634;8.120;2024-01-15T20:47:14;3.50;99.90
16040;DHT22;8124;48.634;8.120;2024-01-15T20:52:17;3.50;99.90
16040;DHT22;8124;48.634;8.120;2024-01-15T20:57:25;3.50;99.90
16040;DHT22;8124;48.634;8.120;2024-01-15T21:02:28;3.60;99.90
16040;DHT22;8124;48.634;8.120;2024-01-15T21:07:32;3.50;99.90
16040;DHT22;8124;48.634;8.120;2024-01-15T21:12:36;3.50;99.90
16040;DHT22;8124;48.634;8.120;2024-01-15T21:17:39;3.40;99.90
16040;DHT22;8124;48.634;8.120;2024-01-15T21:22:42;3.40;99.90
16040;DHT22;8124;48.634;8.120;2024-01-15T21:27:46;3.40;99.90
16040;DHT22;8124;48.634;8.120;2024-01-15T21:32:50;3.50;99.90
16040;DHT22;8124;48.634;8.120;2024-01-15T21:37:53;3.50;99.90
16040;DHT22;8124;48.634;8.120;2024-01-15T21:42:57;3.50;99.90
16040;DHT22;8124;48.634;8.120;2024-01-15T21:48:00;3.30;99.90
16040;DHT22;8124;48.634;8.120;2024-01-15T21:53:05;3.20;99.90
16040;DHT22;8124;48.634;8.120;2024-01-15T21:58:10;3.30;99.90
16040;DHT22;8124;48.634;8.120;2024-01-15T22:03:13;3.20;99.90
16040;DHT22;8124;48.634;8.120;2024-01-15T22:08:18;3.20;99.90
16040;DHT22;8124;48.634;8.120;2024-01-15T22:13:22;3.40;99.90
16040;DHT22;8124;48.634;8.120;2024-01-15T22:18:25;3.30;99.90
16040;DHT22;8124;48.634;8.120;2024-01-15T22:23:28;3.40;99.90
16040;DHT22;8124;48.634;8.120;2024-01-15T22:28:33;3.40;99.90
16040;DHT22;8124;48.634;8.120;2024-01-15T22:33:36;3.30;99.90
16040;DHT22;8124;48.634;8.120;2024-01-15T22:38:39;3.40;99.90
16040;DHT22;8124;48.634;8.120;2024-01-15T22:43:44;3.40;99.90
16040;DHT22;8124;48.634;8.120;2024-01-15T22:48:47;3.40;99.90
16040;DHT22;8124;48.634;8.120;2024-01-15T22:53:50;3.30;99.90
16040;DHT22;8124;48.634;8.120;2024-01-15T22:58:56;3.40;99.90
16040;DHT22;8124;48.634;8.120;2024-01-15T23:03:59;3.30;99.90
16040;DHT22;8124;48.634;8.120;2024-01-15T23:09:02;3.30;99.90
16040;DHT22;8124;48.634;8.120;2024-01-15T23:14:07;3.30;99.90
16040;DHT22;8124;48.634;8.120;2024-01-15T23:19:10;3.30;99.90
16040;DHT22;8124;48.634;8.120;2024-01-15T23:24:12;3.30;99.90
16040;DHT22;8124;48.634;8.120;2024-01-15T23:29:17;3.20;99.90
16040;DHT22;8124;48.634;8.120;2024-01-15T23:34:20;3.10;99.90
16040;DHT22;8124;48.634;8.120;2024-01-15T23:39:23;3.20;99.90
16040;DHT22;8124;48.634;8.120;2024-01-15T23:44:27;3.20;99.90
16040;DHT22;8124;48.634;8.120;2024-01-15T23:49:30;3.20;99.90
16040;DHT22;8124;48.634;8.120;2024-01-15T23:54:33;3.20;99.90
16040;DHT22;8124;48.634;8.120;2024-01-15T23:59:40;3.30;99.90
